createdAt,value
2018-08-04T00:01:46.225Z,90.90
2018-08-04T00:04:15.350Z,90.80
2018-08-04T00:06:43.722Z,90.80
2018-08-04T00:09:12.178Z,91.00
2018-08-04T00:11:41.265Z,90.70
2018-08-04T00:14:09.708Z,90.60
2018-08-04T00:16:39.082Z,91.20
2018-08-04T00:19:07.411Z,90.80
2018-08-04T00:21:35.841Z,90.70
2018-08-04T00:24:04.347Z,90.70
2018-08-04T00:26:32.706Z,90.50
2018-08-04T00:29:01.058Z,90.40
2018-08-04T00:31:29.584Z,90.20
2018-08-04T00:33:57.942Z,90.10
2018-08-04T00:36:26.263Z,89.40
2018-08-04T00:38:54.631Z,89.30
2018-08-04T00:41:22.987Z,88.80
2018-08-04T00:43:51.547Z,88.50
2018-08-04T00:46:20.987Z,87.80
2018-08-04T00:48:49.291Z,87.80
2018-08-04T00:51:17.711Z,88.40
2018-08-04T00:53:46.151Z,88.10
2018-08-04T00:56:14.601Z,87.80
2018-08-04T00:58:42.935Z,88.10
2018-08-04T01:01:12.054Z,87.90
2018-08-04T01:03:40.561Z,87.80
2018-08-04T01:06:09.048Z,88.00
2018-08-04T01:08:37.363Z,88.20
2018-08-04T01:11:06.629Z,89.30
2018-08-04T01:13:35.066Z,88.40
2018-08-04T01:16:04.169Z,89.00
2018-08-04T01:18:33.257Z,89.10
2018-08-04T01:21:01.602Z,89.00
2018-08-04T01:23:30.010Z,89.20
2018-08-04T01:25:59.115Z,89.90
2018-08-04T01:28:27.483Z,89.50
2018-08-04T01:30:56.705Z,89.90
2018-08-04T01:33:25.077Z,89.90
2018-08-04T01:35:53.457Z,90.10
2018-08-04T01:38:21.873Z,90.20
2018-08-04T01:40:50.256Z,90.40
2018-08-04T01:43:18.577Z,90.40
2018-08-04T01:45:47.685Z,90.70
2018-08-04T01:48:16.015Z,90.70
2018-08-04T01:50:44.354Z,90.90
2018-08-04T01:53:12.688Z,91.00
2018-08-04T01:55:41.142Z,91.10
2018-08-04T01:58:09.596Z,91.40
2018-08-04T02:00:37.950Z,91.30
2018-08-04T02:03:07.074Z,91.80
2018-08-04T02:05:35.419Z,91.70
2018-08-04T02:08:03.760Z,91.80
2018-08-04T02:10:32.125Z,92.00
2018-08-04T02:13:00.514Z,92.10
2018-08-04T02:15:28.867Z,92.20
2018-08-04T02:17:57.245Z,92.30
2018-08-04T02:20:25.573Z,92.60
2018-08-04T02:22:53.933Z,92.60
2018-08-04T02:25:22.330Z,92.80
2018-08-04T02:27:50.667Z,92.80
2018-08-04T02:30:19.047Z,92.90
2018-08-04T02:32:47.415Z,93.00
2018-08-04T02:35:15.767Z,93.10
2018-08-04T02:37:44.889Z,93.30
2018-08-04T02:40:13.223Z,93.30
2018-08-04T02:42:41.647Z,93.50
2018-08-04T02:45:09.973Z,93.60
2018-08-04T02:47:38.311Z,93.70
2018-08-04T02:50:06.795Z,93.80
2018-08-04T02:52:35.140Z,94.00
2018-08-04T02:55:03.481Z,94.10
2018-08-04T02:57:31.817Z,94.30
2018-08-04T03:00:00.156Z,94.50
2018-08-04T03:02:28.481Z,94.70
2018-08-04T03:04:57.551Z,94.90
2018-08-04T03:07:26.661Z,95.40
2018-08-04T03:09:54.993Z,95.30
2018-08-04T03:12:23.357Z,95.50
2018-08-04T03:14:51.750Z,95.80
2018-08-04T03:17:20.071Z,96.10
2018-08-04T03:19:49.177Z,96.50
2018-08-04T03:22:17.509Z,96.50
2018-08-04T03:24:45.949Z,96.70
2018-08-04T03:27:14.284Z,97.00
2018-08-04T03:29:42.719Z,97.40
2018-08-04T03:32:11.619Z,97.60
2018-08-04T03:34:39.977Z,97.80
2018-08-04T03:37:08.345Z,98.20
2018-08-04T03:39:36.671Z,98.60
2018-08-04T03:42:05.133Z,98.90
2018-08-04T03:44:33.487Z,99.20
2018-08-04T03:47:01.867Z,99.40
2018-08-04T03:49:30.513Z,99.70
2018-08-04T03:51:58.827Z,99.90
2018-08-04T03:54:27.175Z,99.90
2018-08-04T03:56:56.301Z,99.90
2018-08-04T03:59:26.091Z,99.90
2018-08-04T04:01:55.191Z,99.90
2018-08-04T04:04:24.309Z,99.90
2018-08-04T04:06:52.649Z,99.90
2018-08-04T04:09:21.005Z,99.90
2018-08-04T04:11:49.475Z,99.90
2018-08-04T04:14:17.979Z,99.90
2018-08-04T04:16:46.365Z,99.90
2018-08-04T04:19:14.815Z,99.90
2018-08-04T04:21:43.163Z,99.90
2018-08-04T04:24:11.565Z,99.90
2018-08-04T04:26:39.947Z,99.90
2018-08-04T04:29:08.536Z,99.90
2018-08-04T04:31:36.905Z,99.90
2018-08-04T04:34:05.284Z,99.90
2018-08-04T04:36:33.714Z,99.90
2018-08-04T04:39:02.112Z,99.90
2018-08-04T04:41:30.597Z,99.90
2018-08-04T04:43:59.713Z,99.90
2018-08-04T04:46:28.099Z,99.90
2018-08-04T04:48:56.446Z,99.90
2018-08-04T04:51:25.627Z,99.90
2018-08-04T04:53:53.973Z,99.90
2018-08-04T04:56:22.328Z,99.90
2018-08-04T04:58:50.777Z,99.90
2018-08-04T05:01:19.894Z,99.90
2018-08-04T05:03:48.250Z,99.90
2018-08-04T05:06:17.388Z,99.90
2018-08-04T05:08:45.786Z,99.90
2018-08-04T05:11:14.856Z,99.90
2018-08-04T05:13:43.994Z,99.90
2018-08-04T05:16:12.336Z,99.90
2018-08-04T05:18:40.678Z,99.90
2018-08-04T05:21:09.008Z,99.90
2018-08-04T05:23:37.340Z,99.90
2018-08-04T05:26:05.784Z,99.90
2018-08-04T05:28:34.158Z,99.90
2018-08-04T05:31:02.519Z,99.90
2018-08-04T05:33:30.917Z,99.90
2018-08-04T05:35:59.338Z,99.90
2018-08-04T05:38:27.870Z,99.90
2018-08-04T05:40:56.262Z,99.90
2018-08-04T05:43:24.708Z,99.90
2018-08-04T05:45:53.095Z,99.90
2018-08-04T05:48:21.459Z,99.90
2018-08-04T05:50:49.964Z,99.90
2018-08-04T05:53:18.340Z,99.90
2018-08-04T05:55:46.674Z,99.90
2018-08-04T05:58:15.942Z,99.90
2018-08-04T06:00:44.279Z,99.90
2018-08-04T06:03:12.674Z,99.90
2018-08-04T06:05:41.006Z,99.90
2018-08-04T06:08:10.151Z,99.90
2018-08-04T06:10:38.506Z,99.90
2018-08-04T06:13:07.600Z,99.90
2018-08-04T06:15:36.698Z,99.90
2018-08-04T06:18:05.027Z,99.90
2018-08-04T06:20:33.483Z,99.90
2018-08-04T06:23:01.859Z,99.90
2018-08-04T06:25:30.214Z,99.90
2018-08-04T06:27:58.576Z,99.90
2018-08-04T06:30:27.116Z,99.90
2018-08-04T06:32:55.483Z,99.90
2018-08-04T06:35:23.848Z,99.90
2018-08-04T06:37:52.186Z,99.90
2018-08-04T06:40:20.524Z,99.90
2018-08-04T06:42:49.340Z,99.90
2018-08-04T06:45:17.678Z,99.90
2018-08-04T06:47:46.349Z,99.90
2018-08-04T06:50:15.430Z,99.90
2018-08-04T06:52:43.806Z,99.90
2018-08-04T06:55:12.204Z,99.90
2018-08-04T06:57:41.064Z,99.90
2018-08-04T07:00:09.456Z,99.90
2018-08-04T07:02:38.564Z,99.90
2018-08-04T07:05:06.948Z,99.90
2018-08-04T07:07:35.364Z,99.90
2018-08-04T07:10:03.698Z,99.90
2018-08-04T07:12:32.912Z,99.90
2018-08-04T07:15:01.381Z,99.90
2018-08-04T07:17:30.729Z,99.90
2018-08-04T07:19:59.052Z,99.90
2018-08-04T07:22:28.176Z,99.90
2018-08-04T07:24:56.551Z,99.90
2018-08-04T07:27:24.930Z,99.90
2018-08-04T07:29:53.263Z,99.90
2018-08-04T07:32:21.636Z,99.90
2018-08-04T07:34:50.023Z,99.90
2018-08-04T07:37:18.698Z,99.90
2018-08-04T07:39:47.067Z,99.90
2018-08-04T07:42:15.417Z,99.90
2018-08-04T07:44:43.811Z,99.90
2018-08-04T07:47:12.199Z,99.90
2018-08-04T07:49:40.700Z,99.90
2018-08-04T07:52:09.022Z,99.90
2018-08-04T07:54:38.385Z,99.90
2018-08-04T07:57:07.654Z,99.90
2018-08-04T07:59:36.051Z,99.90
2018-08-04T08:02:04.371Z,99.90
2018-08-04T08:04:33.468Z,99.90
2018-08-04T08:07:02.580Z,99.90
2018-08-04T08:09:30.996Z,99.90
2018-08-04T08:11:59.330Z,99.90
2018-08-04T08:14:27.854Z,99.90
2018-08-04T08:16:56.341Z,99.90
2018-08-04T08:19:24.704Z,99.90
2018-08-04T08:21:53.155Z,99.90
2018-08-04T08:24:21.518Z,99.90
2018-08-04T08:26:49.901Z,99.90
2018-08-04T08:29:18.242Z,99.90
2018-08-04T08:31:46.629Z,99.90
2018-08-04T08:34:15.176Z,99.90
2018-08-04T08:36:43.633Z,99.90
2018-08-04T08:39:11.988Z,99.90
2018-08-04T08:41:40.779Z,99.90
2018-08-04T08:44:09.138Z,99.90
2018-08-04T08:46:37.478Z,99.90
2018-08-04T08:49:05.840Z,99.90
2018-08-04T08:51:34.935Z,99.90
2018-08-04T08:54:04.173Z,99.90
2018-08-04T08:56:32.433Z,99.90
2018-08-04T08:59:00.891Z,99.90
2018-08-04T09:01:30.024Z,99.90
2018-08-04T09:03:58.338Z,99.90
2018-08-04T09:06:27.465Z,99.60
2018-08-04T09:08:55.887Z,99.50
2018-08-04T09:11:24.263Z,98.40
2018-08-04T09:13:53.492Z,98.20
2018-08-04T09:16:26.916Z,98.10
2018-08-04T09:18:56.030Z,97.50
2018-08-04T09:21:24.508Z,97.20
2018-08-04T09:23:52.846Z,97.10
2018-08-04T09:26:21.211Z,96.20
2018-08-04T09:28:49.601Z,95.80
2018-08-04T09:31:17.961Z,95.70
2018-08-04T09:33:46.321Z,95.90
2018-08-04T09:36:14.677Z,95.20
2018-08-04T09:38:45.278Z,94.70
2018-08-04T09:41:13.715Z,94.30
2018-08-04T09:43:42.101Z,94.10
2018-08-04T09:46:10.456Z,92.70
2018-08-04T09:48:38.834Z,92.20
2018-08-04T09:51:07.200Z,92.20
2018-08-04T09:53:35.514Z,91.50
2018-08-04T09:56:03.883Z,90.70
2018-08-04T09:58:32.236Z,91.10
2018-08-04T10:01:01.369Z,90.60
2018-08-04T10:03:29.698Z,90.50
2018-08-04T10:05:58.973Z,90.60
2018-08-04T10:08:27.338Z,90.60
2018-08-04T10:10:55.691Z,87.30
2018-08-04T10:13:24.080Z,85.40
2018-08-04T10:15:52.486Z,85.10
2018-08-04T10:18:20.823Z,88.70
2018-08-04T10:20:49.281Z,87.80
2018-08-04T10:23:18.695Z,85.70
2018-08-04T10:25:47.817Z,85.20
2018-08-04T10:28:16.313Z,85.20
2018-08-04T10:30:45.235Z,84.20
2018-08-04T10:33:13.593Z,82.80
2018-08-04T10:35:41.972Z,83.60
2018-08-04T10:38:10.909Z,86.50
2018-08-04T10:40:40.005Z,83.40
2018-08-04T10:43:09.349Z,78.90
2018-08-04T10:45:37.665Z,78.80
2018-08-04T10:48:06.225Z,77.80
2018-08-04T10:50:34.609Z,76.20
2018-08-04T10:53:02.949Z,76.80
2018-08-04T10:55:31.437Z,77.80
2018-08-04T10:58:00.058Z,78.00
2018-08-04T11:00:29.315Z,73.80
2018-08-04T11:02:57.921Z,73.80
2018-08-04T11:05:26.341Z,74.30
2018-08-04T11:07:54.673Z,71.40
2018-08-04T11:10:23.469Z,71.90
2018-08-04T11:12:51.925Z,72.90
2018-08-04T11:15:20.337Z,73.10
2018-08-04T11:17:49.406Z,69.00
2018-08-04T11:20:17.967Z,71.60
2018-08-04T11:22:47.255Z,70.90
2018-08-04T11:25:15.701Z,70.70
2018-08-04T11:27:44.088Z,68.00
2018-08-04T11:30:12.435Z,67.50
2018-08-04T11:32:40.770Z,67.00
2018-08-04T11:35:09.216Z,70.60
2018-08-04T11:37:37.529Z,66.10
2018-08-04T11:40:05.873Z,65.50
2018-08-04T11:42:34.231Z,66.40
2018-08-04T11:45:02.587Z,67.60
2018-08-04T11:47:30.989Z,67.10
2018-08-04T11:49:59.339Z,64.90
2018-08-04T11:52:28.461Z,66.30
2018-08-04T11:54:56.798Z,66.30
2018-08-04T11:57:25.211Z,63.60
2018-08-04T11:59:53.564Z,60.70
2018-08-04T12:02:21.987Z,59.90
2018-08-04T12:04:50.381Z,60.70
2018-08-04T12:07:18.775Z,58.00
2018-08-04T12:09:47.178Z,58.30
2018-08-04T12:12:15.523Z,57.80
2018-08-04T12:14:43.900Z,60.30
2018-08-04T12:17:12.790Z,61.00
2018-08-04T12:19:41.109Z,58.30
2018-08-04T12:22:10.327Z,55.10
2018-08-04T12:24:38.651Z,54.50
2018-08-04T12:27:07.733Z,53.30
2018-08-04T12:29:36.122Z,53.10
2018-08-04T12:32:04.496Z,55.50
2018-08-04T12:34:32.852Z,57.00
2018-08-04T12:37:01.437Z,58.30
2018-08-04T12:39:29.823Z,57.70
2018-08-04T12:41:58.188Z,57.30
2018-08-04T12:44:26.567Z,55.80
2018-08-04T12:46:55.041Z,54.10
2018-08-04T12:49:23.397Z,55.70
2018-08-04T12:51:52.659Z,56.60
2018-08-04T12:54:21.296Z,56.40
2018-08-04T12:56:49.720Z,56.70
2018-08-04T12:59:18.131Z,57.70
2018-08-04T13:01:46.702Z,55.70
2018-08-04T13:04:15.058Z,58.20
2018-08-04T13:06:43.443Z,55.60
2018-08-04T13:09:11.864Z,56.30
2018-08-04T13:11:40.213Z,56.20
2018-08-04T13:14:08.534Z,55.20
2018-08-04T13:16:37.783Z,56.00
2018-08-04T13:19:06.324Z,55.90
2018-08-04T13:21:35.412Z,57.20
2018-08-04T13:24:05.460Z,55.90
2018-08-04T13:26:33.832Z,55.90
2018-08-04T13:29:02.177Z,55.90
2018-08-04T13:31:32.459Z,55.60
2018-08-04T13:34:01.430Z,55.60
2018-08-04T13:36:29.803Z,54.50
2018-08-04T13:38:58.139Z,52.80
2018-08-04T13:41:26.568Z,52.90
2018-08-04T13:43:54.879Z,54.20
2018-08-04T13:46:23.941Z,54.30
2018-08-04T13:48:52.893Z,54.90
2018-08-04T13:51:21.249Z,55.70
2018-08-04T13:53:49.615Z,54.70
2018-08-04T13:56:17.944Z,54.30
2018-08-04T13:58:46.292Z,55.30
2018-08-04T14:01:14.725Z,55.50
2018-08-04T14:03:43.715Z,56.80
2018-08-04T14:06:12.095Z,56.10
2018-08-04T14:08:40.443Z,56.30
2018-08-04T14:11:08.787Z,57.50
2018-08-04T14:13:37.147Z,56.30
2018-08-04T14:16:05.511Z,55.70
2018-08-04T14:18:34.643Z,57.10
2018-08-04T14:21:03.004Z,55.80
2018-08-04T14:23:31.405Z,58.30
2018-08-04T14:25:59.833Z,56.70
2018-08-04T14:28:29.029Z,56.30
2018-08-04T14:30:58.142Z,55.70
2018-08-04T14:33:26.551Z,55.70
2018-08-04T14:35:54.983Z,56.30
2018-08-04T14:38:23.417Z,56.20
2018-08-04T14:40:51.753Z,56.80
2018-08-04T14:43:20.100Z,55.50
2018-08-04T14:45:48.535Z,55.70
2018-08-04T14:48:16.873Z,56.70
2018-08-04T14:50:45.392Z,57.00
2018-08-04T14:53:13.898Z,56.50
2018-08-04T14:55:42.260Z,58.00
2018-08-04T14:58:11.645Z,56.40
2018-08-04T15:00:39.990Z,56.60
2018-08-04T15:03:08.350Z,56.80
2018-08-04T15:05:36.694Z,56.50
2018-08-04T15:08:05.050Z,58.10
2018-08-04T15:10:33.562Z,57.50
2018-08-04T15:13:02.734Z,57.90
2018-08-04T15:15:31.066Z,56.90
2018-08-04T15:17:59.434Z,57.90
2018-08-04T15:20:27.767Z,57.00
2018-08-04T15:22:56.898Z,56.20
2018-08-04T15:25:25.354Z,58.30
2018-08-04T15:27:54.444Z,59.30
2018-08-04T15:30:22.848Z,59.30
2018-08-04T15:32:52.109Z,59.30
2018-08-04T15:35:21.233Z,58.50
2018-08-04T15:37:49.682Z,58.50
2018-08-04T15:40:18.796Z,57.80
2018-08-04T15:42:47.996Z,58.10
2018-08-04T15:45:17.095Z,58.40
2018-08-04T15:47:45.465Z,58.40
2018-08-04T15:50:13.857Z,58.60
2018-08-04T15:52:42.227Z,57.80
2018-08-04T15:55:11.332Z,58.00
2018-08-04T15:57:40.635Z,58.00
2018-08-04T16:00:08.996Z,57.90
2018-08-04T16:02:38.108Z,58.50
2018-08-04T16:05:06.473Z,58.40
2018-08-04T16:07:34.867Z,58.70
2018-08-04T16:10:03.324Z,59.50
2018-08-04T16:12:31.721Z,58.50
2018-08-04T16:15:01.101Z,58.90
2018-08-04T16:17:29.436Z,58.50
2018-08-04T16:19:57.782Z,58.40
2018-08-04T16:22:26.112Z,58.00
2018-08-04T16:24:54.566Z,57.30
2018-08-04T16:27:23.659Z,56.80
2018-08-04T16:29:52.641Z,56.80
2018-08-04T16:32:20.985Z,56.80
2018-08-04T16:34:50.137Z,57.20
2018-08-04T16:37:18.457Z,57.90
2018-08-04T16:39:47.611Z,55.20
2018-08-04T16:42:15.949Z,55.20
2018-08-04T16:44:45.075Z,55.10
2018-08-04T16:47:13.445Z,55.10
2018-08-04T16:49:41.900Z,55.10
2018-08-04T16:52:10.385Z,55.30
2018-08-04T16:54:38.833Z,55.60
2018-08-04T16:57:07.300Z,55.60
2018-08-04T16:59:35.671Z,56.20
2018-08-04T17:02:04.364Z,56.50
2018-08-04T17:04:32.773Z,56.40
2018-08-04T17:07:01.201Z,56.10
2018-08-04T17:09:29.579Z,55.60
2018-08-04T17:11:57.966Z,55.20
2018-08-04T17:14:27.278Z,55.30
2018-08-04T17:16:55.712Z,55.10
2018-08-04T17:19:24.818Z,57.10
2018-08-04T17:21:53.939Z,57.50
2018-08-04T17:24:23.008Z,58.70
2018-08-04T17:26:52.378Z,60.50
2018-08-04T17:29:20.742Z,60.50
2018-08-04T17:31:49.101Z,62.50
2018-08-04T17:34:17.810Z,62.50
2018-08-04T17:36:46.158Z,62.70
2018-08-04T17:39:14.524Z,63.40
2018-08-04T17:41:42.989Z,65.00
2018-08-04T17:44:12.082Z,66.10
2018-08-04T17:46:41.202Z,66.90
2018-08-04T17:49:09.545Z,66.90
2018-08-04T17:51:38.135Z,68.00
2018-08-04T17:54:06.479Z,68.40
2018-08-04T17:56:34.822Z,68.40
2018-08-04T17:59:04.090Z,69.40
2018-08-04T18:01:32.517Z,69.30
2018-08-04T18:04:01.696Z,70.20
2018-08-04T18:06:30.757Z,70.80
2018-08-04T18:08:59.126Z,72.00
2018-08-04T18:11:27.466Z,73.00
2018-08-04T18:13:55.818Z,73.40
2018-08-04T18:16:24.914Z,74.10
2018-08-04T18:18:54.083Z,73.80
2018-08-04T18:21:22.364Z,73.80
2018-08-04T18:23:50.796Z,74.00
2018-08-04T18:26:19.188Z,74.10
2018-08-04T18:28:47.536Z,74.40
2018-08-04T18:31:15.887Z,74.90
2018-08-04T18:33:44.256Z,74.70
2018-08-04T18:36:12.586Z,75.20
2018-08-04T18:38:40.968Z,75.30
2018-08-04T18:41:09.299Z,75.60
2018-08-04T18:43:37.768Z,76.70
2018-08-04T18:46:06.155Z,76.00
2018-08-04T18:48:34.483Z,76.50
2018-08-04T18:51:02.986Z,76.90
2018-08-04T18:53:31.310Z,77.10
2018-08-04T18:56:00.472Z,78.20
2018-08-04T18:58:28.796Z,77.20
2018-08-04T19:00:58.083Z,77.80
2018-08-04T19:03:26.382Z,77.80
2018-08-04T19:05:55.484Z,78.50
2018-08-04T19:08:23.835Z,78.50
2018-08-04T19:10:52.939Z,79.60
2018-08-04T19:13:21.342Z,79.40
2018-08-04T19:15:50.843Z,79.90
2018-08-04T19:18:19.742Z,80.50
2018-08-04T19:20:48.078Z,80.70
2018-08-04T19:23:16.448Z,80.90
2018-08-04T19:25:44.775Z,81.40
2018-08-04T19:28:13.328Z,81.40
2018-08-04T19:30:41.606Z,81.70
2018-08-04T19:33:10.722Z,82.50
2018-08-04T19:35:39.229Z,82.40
2018-08-04T19:38:07.590Z,82.80
2018-08-04T19:40:35.978Z,84.20
2018-08-04T19:43:04.320Z,83.60
2018-08-04T19:45:32.786Z,84.10
2018-08-04T19:48:01.183Z,84.40
2018-08-04T19:50:29.693Z,84.80
2018-08-04T19:52:58.014Z,85.10
2018-08-04T19:55:26.374Z,85.60
2018-08-04T19:57:54.731Z,86.10
2018-08-04T20:00:23.118Z,87.40
2018-08-04T20:02:51.501Z,86.80
2018-08-04T20:05:19.871Z,87.20
2018-08-04T20:07:48.276Z,87.50
2018-08-04T20:10:16.935Z,87.90
2018-08-04T20:12:45.441Z,88.50
2018-08-04T20:15:13.787Z,89.40
2018-08-04T20:17:42.144Z,88.90
2018-08-04T20:20:10.619Z,89.20
2018-08-04T20:22:38.968Z,89.40
2018-08-04T20:25:07.323Z,89.80
2018-08-04T20:27:35.717Z,90.00
2018-08-04T20:30:04.866Z,90.20
2018-08-04T20:32:34.201Z,90.30
2018-08-04T20:35:02.726Z,90.30
2018-08-04T20:37:31.017Z,90.40
2018-08-04T20:39:59.442Z,90.50
2018-08-04T20:42:27.776Z,90.60
2018-08-04T20:44:56.115Z,90.70
2018-08-04T20:47:24.524Z,90.90
2018-08-04T20:49:52.972Z,91.00
2018-08-04T20:52:21.359Z,91.10
2018-08-04T20:54:49.704Z,91.20
2018-08-04T20:57:18.041Z,91.40
2018-08-04T20:59:46.547Z,91.30
2018-08-04T21:02:15.641Z,91.50
2018-08-04T21:04:44.985Z,91.50
2018-08-04T21:07:13.364Z,91.50
2018-08-04T21:09:41.733Z,91.70
2018-08-04T21:12:10.079Z,91.80
2018-08-04T21:14:39.206Z,92.00
2018-08-04T21:17:07.634Z,92.00
2018-08-04T21:19:35.948Z,92.10
2018-08-04T21:22:04.568Z,92.20
2018-08-04T21:24:32.868Z,92.30
2018-08-04T21:27:01.244Z,92.50
2018-08-04T21:29:29.588Z,92.60
2018-08-04T21:31:58.430Z,92.70
2018-08-04T21:34:26.782Z,92.70
2018-08-04T21:36:55.236Z,92.50
2018-08-04T21:39:23.591Z,92.60
2018-08-04T21:41:52.706Z,92.80
2018-08-04T21:44:21.104Z,92.80
2018-08-04T21:46:49.455Z,92.90
2018-08-04T21:49:17.931Z,92.90
2018-08-04T21:51:47.016Z,93.30
2018-08-04T21:54:19.917Z,92.70
2018-08-04T21:56:44.510Z,92.60
2018-08-04T21:59:12.860Z,92.80
2018-08-04T22:01:42.213Z,93.20
2018-08-04T22:04:10.742Z,93.10
2018-08-04T22:06:39.157Z,93.60
2018-08-04T22:09:18.882Z,93.50
2018-08-04T22:11:48.243Z,93.50
2018-08-04T22:14:16.566Z,93.30
2018-08-04T22:16:45.694Z,93.70
2018-08-04T22:19:14.064Z,93.70
2018-08-04T22:21:43.149Z,93.70
2018-08-04T22:24:11.488Z,93.70
2018-08-04T22:26:40.050Z,93.80
2018-08-04T22:29:08.366Z,93.90
2018-08-04T22:31:37.584Z,94.20
2018-08-04T22:34:05.923Z,94.10
2018-08-04T22:36:34.284Z,94.20
2018-08-04T22:39:02.633Z,94.30
2018-08-04T22:41:31.011Z,94.50
2018-08-04T22:43:59.362Z,94.70
2018-08-04T22:46:28.456Z,95.10
2018-08-04T22:48:57.717Z,95.20
2018-08-04T22:51:26.077Z,95.20
2018-08-04T22:53:54.436Z,95.30
2018-08-04T22:56:22.774Z,95.40
2018-08-04T22:58:51.126Z,95.70
2018-08-04T23:01:19.504Z,95.90
2018-08-04T23:03:47.892Z,96.20
2018-08-04T23:06:16.335Z,96.50
2018-08-04T23:08:44.672Z,96.70
2018-08-04T23:11:13.038Z,97.00
2018-08-04T23:13:41.371Z,97.30
2018-08-04T23:16:09.803Z,97.40
2018-08-04T23:18:38.120Z,97.60
2018-08-04T23:21:06.458Z,97.90
2018-08-04T23:23:34.814Z,98.20
2018-08-04T23:26:03.146Z,98.40
2018-08-04T23:28:32.279Z,99.00
2018-08-04T23:31:00.731Z,98.90
2018-08-04T23:33:29.238Z,99.60
2018-08-04T23:35:57.605Z,99.90
2018-08-04T23:38:25.940Z,99.90
2018-08-04T23:40:54.267Z,99.90
2018-08-04T23:43:22.911Z,99.90
2018-08-04T23:45:51.224Z,99.90
2018-08-04T23:48:19.555Z,99.90
2018-08-04T23:50:47.908Z,99.90
2018-08-04T23:53:16.248Z,99.90
2018-08-04T23:55:44.667Z,99.90
2018-08-04T23:58:13.014Z,99.90
